sensor_id;sensor_type;location;lat;lon;timestamp;temperature;humidity
5200;DHT22;2619;47.868;11.892;2024-03-25T00:02:13;3.90;99.90
5200;DHT22;2619;47.868;11.892;2024-03-25T00:04:39;3.80;99.90
5200;DHT22;2619;47.868;11.892;2024-03-25T00:07:04;3.80;99.90
5200;DHT22;2619;47.868;11.892;2024-03-25T00:09:30;3.80;99.90
5200;DHT22;2619;47.868;11.892;2024-03-25T00:11:56;3.80;99.90
5200;DHT22;2619;47.868;11.892;2024-03-25T00:14:22;3.80;99.90
5200;DHT22;2619;47.868;11.892;2024-03-25T00:16:47;3.80;99.90
5200;DHT22;2619;47.868;11.892;2024-03-25T00:19:13;3.80;99.90
5200;DHT22;2619;47.868;11.892;2024-03-25T00:21:39;3.80;99.90
5200;DHT22;2619;47.868;11.892;2024-03-25T00:24:04;3.90;99.90
5200;DHT22;2619;47.868;11.892;2024-03-25T00:26:30;3.80;99.90
5200;DHT22;2619;47.868;11.892;2024-03-25T00:28:56;3.80;99.90
5200;DHT22;2619;47.868;11.892;2024-03-25T00:31:22;3.90;99.90
5200;DHT22;2619;47.868;11.892;2024-03-25T00:33:47;3.90;99.90
5200;DHT22;2619;47.868;11.892;2024-03-25T00:36:13;4.00;99.90
5200;DHT22;2619;47.868;11.892;2024-03-25T00:38:38;4.00;99.90
5200;DHT22;2619;47.868;11.892;2024-03-25T00:41:04;4.00;99.90
5200;DHT22;2619;47.868;11.892;2024-03-25T00:43:29;4.00;99.90
5200;DHT22;2619;47.868;11.892;2024-03-25T00:45:55;4.00;99.90
5200;DHT22;2619;47.868;11.892;2024-03-25T00:48:22;4.00;99.90
5200;DHT22;2619;47.868;11.892;2024-03-25T00:50:48;4.00;99.90
5200;DHT22;2619;47.868;11.892;2024-03-25T00:53:14;4.00;99.90
5200;DHT22;2619;47.868;11.892;2024-03-25T00:55:40;4.10;99.90
5200;DHT22;2619;47.868;11.892;2024-03-25T00:58:05;4.10;99.90
5200;DHT22;2619;47.868;11.892;2024-03-25T01:00:31;4.10;99.90
5200;DHT22;2619;47.868;11.892;2024-03-25T01:02:56;4.10;99.90
5200;DHT22;2619;47.868;11.892;2024-03-25T01:05:22;4.10;99.90
5200;DHT22;2619;47.868;11.892;2024-03-25T01:07:48;4.10;99.90
5200;DHT22;2619;47.868;11.892;2024-03-25T01:10:17;4.10;99.90
5200;DHT22;2619;47.868;11.892;2024-03-25T01:12:42;4.00;99.90
5200;DHT22;2619;47.868;11.892;2024-03-25T01:15:08;4.00;99.90
5200;DHT22;2619;47.868;11.892;2024-03-25T01:17:36;4.00;99.90
5200;DHT22;2619;47.868;11.892;2024-03-25T01:20:02;3.90;99.90
5200;DHT22;2619;47.868;11.892;2024-03-25T01:22:30;3.80;99.90
5200;DHT22;2619;47.868;11.892;2024-03-25T01:24:56;3.80;99.90
5200;DHT22;2619;47.868;11.892;2024-03-25T01:27:21;3.80;99.90
5200;DHT22;2619;47.868;11.892;2024-03-25T01:29:47;3.70;99.90
5200;DHT22;2619;47.868;11.892;2024-03-25T01:32:12;3.60;99.90
5200;DHT22;2619;47.868;11.892;2024-03-25T01:34:38;3.60;99.90
5200;DHT22;2619;47.868;11.892;2024-03-25T01:37:04;3.40;99.90
5200;DHT22;2619;47.868;11.892;2024-03-25T01:39:29;3.40;99.90
5200;DHT22;2619;47.868;11.892;2024-03-25T01:41:55;3.30;99.90
5200;DHT22;2619;47.868;11.892;2024-03-25T01:44:20;3.30;99.90
5200;DHT22;2619;47.868;11.892;2024-03-25T01:46:46;3.30;99.90
5200;DHT22;2619;47.868;11.892;2024-03-25T01:49:12;3.20;99.90
5200;DHT22;2619;47.868;11.892;2024-03-25T01:51:39;3.20;99.90
5200;DHT22;2619;47.868;11.892;2024-03-25T01:54:06;3.20;99.90
5200;DHT22;2619;47.868;11.892;2024-03-25T01:56:33;3.20;99.90
5200;DHT22;2619;47.868;11.892;2024-03-25T01:58:59;3.20;99.90
5200;DHT22;2619;47.868;11.892;2024-03-25T02:01:26;3.20;99.90
5200;DHT22;2619;47.868;11.892;2024-03-25T02:03:53;3.10;99.90
5200;DHT22;2619;47.868;11.892;2024-03-25T02:06:20;3.10;99.90
5200;DHT22;2619;47.868;11.892;2024-03-25T02:08:48;3.20;99.90
5200;DHT22;2619;47.868;11.892;2024-03-25T02:11:14;3.20;99.90
5200;DHT22;2619;47.868;11.892;2024-03-25T02:13:40;3.30;99.90
5200;DHT22;2619;47.868;11.892;2024-03-25T02:16:07;3.30;99.90
5200;DHT22;2619;47.868;11.892;2024-03-25T02:18:32;3.30;99.90
5200;DHT22;2619;47.868;11.892;2024-03-25T02:20:59;3.30;99.90
5200;DHT22;2619;47.868;11.892;2024-03-25T02:23:25;3.30;99.90
5200;DHT22;2619;47.868;11.892;2024-03-25T02:25:55;3.30;99.90
5200;DHT22;2619;47.868;11.892;2024-03-25T02:28:21;3.30;99.90
5200;DHT22;2619;47.868;11.892;2024-03-25T02:30:47;3.30;99.90
5200;DHT22;2619;47.868;11.892;2024-03-25T02:33:13;3.40;99.90
5200;DHT22;2619;47.868;11.892;2024-03-25T02:35:40;3.40;99.90
5200;DHT22;2619;47.868;11.892;2024-03-25T02:38:06;3.40;99.90
5200;DHT22;2619;47.868;11.892;2024-03-25T02:40:33;3.50;99.90
5200;DHT22;2619;47.868;11.892;2024-03-25T02:42:59;3.50;99.90
5200;DHT22;2619;47.868;11.892;2024-03-25T02:45:25;3.50;99.90
5200;DHT22;2619;47.868;11.892;2024-03-25T02:47:51;3.50;99.90
5200;DHT22;2619;47.868;11.892;2024-03-25T02:50:17;3.50;99.90
5200;DHT22;2619;47.868;11.892;2024-03-25T02:52:42;3.50;99.90
5200;DHT22;2619;47.868;11.892;2024-03-25T02:55:08;3.50;99.90
5200;DHT22;2619;47.868;11.892;2024-03-25T02:57:34;3.50;99.90
5200;DHT22;2619;47.868;11.892;2024-03-25T02:59:59;3.40;99.90
5200;DHT22;2619;47.868;11.892;2024-03-25T03:02:25;3.50;99.90
5200;DHT22;2619;47.868;11.892;2024-03-25T03:04:50;3.50;99.90
5200;DHT22;2619;47.868;11.892;2024-03-25T03:07:16;3.50;99.90
5200;DHT22;2619;47.868;11.892;2024-03-25T03:12:09;3.50;99.90
5200;DHT22;2619;47.868;11.892;2024-03-25T03:14:35;3.50;99.90
5200;DHT22;2619;47.868;11.892;2024-03-25T03:17:00;3.50;99.90
5200;DHT22;2619;47.868;11.892;2024-03-25T03:19:30;3.60;99.90
5200;DHT22;2619;47.868;11.892;2024-03-25T03:21:56;3.60;99.90
5200;DHT22;2619;47.868;11.892;2024-03-25T03:24:21;3.60;99.90
5200;DHT22;2619;47.868;11.892;2024-03-25T03:26:48;3.60;99.90
5200;DHT22;2619;47.868;11.892;2024-03-25T03:29:13;3.60;99.90
5200;DHT22;2619;47.868;11.892;2024-03-25T03:31:39;3.60;99.90
5200;DHT22;2619;47.868;11.892;2024-03-25T03:34:05;3.60;99.90
5200;DHT22;2619;47.868;11.892;2024-03-25T03:36:30;3.70;99.90
5200;DHT22;2619;47.868;11.892;2024-03-25T03:38:56;3.60;99.90
5200;DHT22;2619;47.868;11.892;2024-03-25T03:41:21;3.60;99.90
5200;DHT22;2619;47.868;11.892;2024-03-25T03:43:47;3.60;99.90
5200;DHT22;2619;47.868;11.892;2024-03-25T03:46:13;3.60;99.90
5200;DHT22;2619;47.868;11.892;2024-03-25T03:48:38;3.60;99.90
5200;DHT22;2619;47.868;11.892;2024-03-25T03:51:05;3.50;99.90
5200;DHT22;2619;47.868;11.892;2024-03-25T03:53:32;3.60;99.90
5200;DHT22;2619;47.868;11.892;2024-03-25T03:55:59;3.60;99.90
5200;DHT22;2619;47.868;11.892;2024-03-25T03:58:25;3.50;99.90
5200;DHT22;2619;47.868;11.892;2024-03-25T04:00:51;3.40;99.90
5200;DHT22;2619;47.868;11.892;2024-03-25T04:03:18;3.30;99.90
5200;DHT22;2619;47.868;11.892;2024-03-25T04:05:43;3.20;99.90
5200;DHT22;2619;47.868;11.892;2024-03-25T04:08:09;3.10;99.90
5200;DHT22;2619;47.868;11.892;2024-03-25T04:10:35;3.10;99.90
5200;DHT22;2619;47.868;11.892;2024-03-25T04:13:01;3.00;99.90
5200;DHT22;2619;47.868;11.892;2024-03-25T04:15:27;2.90;99.90
5200;DHT22;2619;47.868;11.892;2024-03-25T04:17:53;3.00;99.90
5200;DHT22;2619;47.868;11.892;2024-03-25T04:20:19;3.00;99.90
5200;DHT22;2619;47.868;11.892;2024-03-25T04:22:45;3.00;99.90
5200;DHT22;2619;47.868;11.892;2024-03-25T04:25:12;3.00;99.90
5200;DHT22;2619;47.868;11.892;2024-03-25T04:27:41;3.00;99.90
5200;DHT22;2619;47.868;11.892;2024-03-25T04:30:09;3.00;99.90
5200;DHT22;2619;47.868;11.892;2024-03-25T04:32:35;3.00;99.90
5200;DHT22;2619;47.868;11.892;2024-03-25T04:35:01;3.10;99.90
5200;DHT22;2619;47.868;11.892;2024-03-25T04:37:27;3.00;99.90
5200;DHT22;2619;47.868;11.892;2024-03-25T04:39:56;3.10;99.90
5200;DHT22;2619;47.868;11.892;2024-03-25T04:42:22;3.10;99.90
5200;DHT22;2619;47.868;11.892;2024-03-25T04:44:49;3.10;99.90
5200;DHT22;2619;47.868;11.892;2024-03-25T04:47:14;3.20;99.90
5200;DHT22;2619;47.868;11.892;2024-03-25T04:49:41;3.20;99.90
5200;DHT22;2619;47.868;11.892;2024-03-25T04:52:06;3.20;99.90
5200;DHT22;2619;47.868;11.892;2024-03-25T04:54:32;3.10;99.90
5200;DHT22;2619;47.868;11.892;2024-03-25T04:56:58;3.10;99.90
5200;DHT22;2619;47.868;11.892;2024-03-25T04:59:23;3.10;99.90
5200;DHT22;2619;47.868;11.892;2024-03-25T05:01:49;3.10;99.90
5200;DHT22;2619;47.868;11.892;2024-03-25T05:04:14;3.10;99.90
5200;DHT22;2619;47.868;11.892;2024-03-25T05:06:40;3.10;99.90
5200;DHT22;2619;47.868;11.892;2024-03-25T05:09:05;3.00;99.90
5200;DHT22;2619;47.868;11.892;2024-03-25T05:11:32;3.00;99.90
5200;DHT22;2619;47.868;11.892;2024-03-25T05:13:58;3.00;99.90
5200;DHT22;2619;47.868;11.892;2024-03-25T05:16:24;3.10;99.90
5200;DHT22;2619;47.868;11.892;2024-03-25T05:18:49;3.00;99.90
5200;DHT22;2619;47.868;11.892;2024-03-25T05:21:15;3.00;99.90
5200;DHT22;2619;47.868;11.892;2024-03-25T05:23:41;3.10;99.90
5200;DHT22;2619;47.868;11.892;2024-03-25T05:26:06;3.20;99.90
5200;DHT22;2619;47.868;11.892;2024-03-25T05:28:32;3.10;99.90
5200;DHT22;2619;47.868;11.892;2024-03-25T05:31:08;3.10;99.90
5200;DHT22;2619;47.868;11.892;2024-03-25T05:33:34;3.00;99.90
5200;DHT22;2619;47.868;11.892;2024-03-25T05:36:00;3.00;99.90
5200;DHT22;2619;47.868;11.892;2024-03-25T05:38:27;2.90;99.90
5200;DHT22;2619;47.868;11.892;2024-03-25T05:40:53;2.90;99.90
5200;DHT22;2619;47.868;11.892;2024-03-25T05:43:19;2.90;99.90
5200;DHT22;2619;47.868;11.892;2024-03-25T05:45:52;2.90;99.90
5200;DHT22;2619;47.868;11.892;2024-03-25T05:48:19;2.90;99.90
5200;DHT22;2619;47.868;11.892;2024-03-25T05:50:44;2.90;99.90
5200;DHT22;2619;47.868;11.892;2024-03-25T05:53:10;2.80;99.90
5200;DHT22;2619;47.868;11.892;2024-03-25T05:55:36;2.80;99.90
5200;DHT22;2619;47.868;11.892;2024-03-25T05:58:01;2.70;99.90
5200;DHT22;2619;47.868;11.892;2024-03-25T06:00:28;2.70;99.90
5200;DHT22;2619;47.868;11.892;2024-03-25T06:02:54;2.90;99.90
5200;DHT22;2619;47.868;11.892;2024-03-25T06:05:20;3.30;99.90
5200;DHT22;2619;47.868;11.892;2024-03-25T06:07:45;3.80;99.90
5200;DHT22;2619;47.868;11.892;2024-03-25T06:10:11;4.30;99.90
5200;DHT22;2619;47.868;11.892;2024-03-25T06:12:37;4.90;99.90
5200;DHT22;2619;47.868;11.892;2024-03-25T06:15:02;5.20;99.90
5200;DHT22;2619;47.868;11.892;2024-03-25T06:17:28;5.60;99.90
5200;DHT22;2619;47.868;11.892;2024-03-25T06:19:54;5.80;99.90
5200;DHT22;2619;47.868;11.892;2024-03-25T06:22:19;6.20;99.90
5200;DHT22;2619;47.868;11.892;2024-03-25T06:24:45;6.40;99.90
5200;DHT22;2619;47.868;11.892;2024-03-25T06:27:10;6.40;99.90
5200;DHT22;2619;47.868;11.892;2024-03-25T06:29:36;6.30;99.90
5200;DHT22;2619;47.868;11.892;2024-03-25T06:32:01;6.10;99.90
5200;DHT22;2619;47.868;11.892;2024-03-25T06:34:45;6.10;99.90
5200;DHT22;2619;47.868;11.892;2024-03-25T06:37:11;5.70;99.90
5200;DHT22;2619;47.868;11.892;2024-03-25T06:39:37;5.50;99.90
5200;DHT22;2619;47.868;11.892;2024-03-25T06:42:02;5.40;99.90
5200;DHT22;2619;47.868;11.892;2024-03-25T06:44:28;5.40;99.90
5200;DHT22;2619;47.868;11.892;2024-03-25T06:46:54;5.40;99.90
5200;DHT22;2619;47.868;11.892;2024-03-25T06:49:20;5.40;99.90
5200;DHT22;2619;47.868;11.892;2024-03-25T06:51:45;5.30;99.90
5200;DHT22;2619;47.868;11.892;2024-03-25T06:54:11;5.10;99.90
5200;DHT22;2619;47.868;11.892;2024-03-25T06:56:37;5.00;99.90
5200;DHT22;2619;47.868;11.892;2024-03-25T06:59:03;4.90;99.90
5200;DHT22;2619;47.868;11.892;2024-03-25T07:01:28;4.80;99.90
5200;DHT22;2619;47.868;11.892;2024-03-25T07:03:54;4.80;99.90
5200;DHT22;2619;47.868;11.892;2024-03-25T07:06:20;4.80;99.90
5200;DHT22;2619;47.868;11.892;2024-03-25T07:08:45;5.00;99.90
5200;DHT22;2619;47.868;11.892;2024-03-25T07:11:13;5.20;99.90
5200;DHT22;2619;47.868;11.892;2024-03-25T07:13:38;5.30;99.90
5200;DHT22;2619;47.868;11.892;2024-03-25T07:16:04;5.50;99.90
5200;DHT22;2619;47.868;11.892;2024-03-25T07:18:30;5.60;99.90
5200;DHT22;2619;47.868;11.892;2024-03-25T07:20:55;5.70;99.90
5200;DHT22;2619;47.868;11.892;2024-03-25T07:23:21;5.80;99.90
5200;DHT22;2619;47.868;11.892;2024-03-25T07:25:46;5.90;99.90
5200;DHT22;2619;47.868;11.892;2024-03-25T07:28:12;6.10;99.90
5200;DHT22;2619;47.868;11.892;2024-03-25T07:30:38;6.20;99.90
5200;DHT22;2619;47.868;11.892;2024-03-25T07:33:03;6.30;99.90
5200;DHT22;2619;47.868;11.892;2024-03-25T07:35:30;6.40;99.90
5200;DHT22;2619;47.868;11.892;2024-03-25T07:37:56;6.50;99.90
5200;DHT22;2619;47.868;11.892;2024-03-25T07:40:22;6.60;99.90
5200;DHT22;2619;47.868;11.892;2024-03-25T07:42:48;6.60;99.90
5200;DHT22;2619;47.868;11.892;2024-03-25T07:45:15;6.60;99.90
5200;DHT22;2619;47.868;11.892;2024-03-25T07:47:41;6.70;99.90
5200;DHT22;2619;47.868;11.892;2024-03-25T07:50:07;6.80;99.90
5200;DHT22;2619;47.868;11.892;2024-03-25T07:52:33;6.90;99.90
5200;DHT22;2619;47.868;11.892;2024-03-25T07:55:01;6.90;99.90
5200;DHT22;2619;47.868;11.892;2024-03-25T07:57:27;6.90;99.90
5200;DHT22;2619;47.868;11.892;2024-03-25T07:59:53;6.90;99.90
5200;DHT22;2619;47.868;11.892;2024-03-25T08:02:19;7.00;99.90
5200;DHT22;2619;47.868;11.892;2024-03-25T08:04:44;7.00;99.90
5200;DHT22;2619;47.868;11.892;2024-03-25T08:07:10;7.10;99.90
5200;DHT22;2619;47.868;11.892;2024-03-25T08:09:35;7.30;99.90
5200;DHT22;2619;47.868;11.892;2024-03-25T08:12:01;7.60;99.90
5200;DHT22;2619;47.868;11.892;2024-03-25T08:14:26;7.70;99.90
5200;DHT22;2619;47.868;11.892;2024-03-25T08:16:52;7.90;99.90
5200;DHT22;2619;47.868;11.892;2024-03-25T08:19:18;7.90;99.90
5200;DHT22;2619;47.868;11.892;2024-03-25T08:21:43;7.70;99.90
5200;DHT22;2619;47.868;11.892;2024-03-25T08:24:09;7.60;99.90
5200;DHT22;2619;47.868;11.892;2024-03-25T08:26:34;7.50;99.90
5200;DHT22;2619;47.868;11.892;2024-03-25T08:29:00;7.40;99.90
5200;DHT22;2619;47.868;11.892;2024-03-25T08:31:25;7.10;99.90
5200;DHT22;2619;47.868;11.892;2024-03-25T08:33:51;7.20;99.90
5200;DHT22;2619;47.868;11.892;2024-03-25T08:36:17;7.30;99.90
5200;DHT22;2619;47.868;11.892;2024-03-25T08:38:44;7.40;99.90
5200;DHT22;2619;47.868;11.892;2024-03-25T08:41:10;7.40;99.90
5200;DHT22;2619;47.868;11.892;2024-03-25T08:43:35;7.50;99.90
5200;DHT22;2619;47.868;11.892;2024-03-25T08:46:01;7.60;99.90
5200;DHT22;2619;47.868;11.892;2024-03-25T08:48:29;7.70;99.90
5200;DHT22;2619;47.868;11.892;2024-03-25T08:50:54;7.80;99.90
5200;DHT22;2619;47.868;11.892;2024-03-25T08:53:20;8.20;99.90
5200;DHT22;2619;47.868;11.892;2024-03-25T08:55:46;8.60;99.90
5200;DHT22;2619;47.868;11.892;2024-03-25T08:58:13;9.10;99.90
5200;DHT22;2619;47.868;11.892;2024-03-25T09:00:38;9.40;99.90
5200;DHT22;2619;47.868;11.892;2024-03-25T09:03:04;9.60;99.90
5200;DHT22;2619;47.868;11.892;2024-03-25T09:05:30;9.80;99.90
5200;DHT22;2619;47.868;11.892;2024-03-25T09:07:56;9.80;99.90
5200;DHT22;2619;47.868;11.892;2024-03-25T09:10:24;9.50;99.90
5200;DHT22;2619;47.868;11.892;2024-03-25T09:13:08;9.60;99.90
5200;DHT22;2619;47.868;11.892;2024-03-25T09:15:34;9.70;99.90
5200;DHT22;2619;47.868;11.892;2024-03-25T09:17:59;9.20;99.90
5200;DHT22;2619;47.868;11.892;2024-03-25T09:20:25;8.90;99.90
5200;DHT22;2619;47.868;11.892;2024-03-25T09:22:51;9.10;99.90
5200;DHT22;2619;47.868;11.892;2024-03-25T09:25:17;9.30;99.90
5200;DHT22;2619;47.868;11.892;2024-03-25T09:27:47;9.40;99.90
5200;DHT22;2619;47.868;11.892;2024-03-25T09:30:13;9.40;99.90
5200;DHT22;2619;47.868;11.892;2024-03-25T09:32:39;9.30;99.90
5200;DHT22;2619;47.868;11.892;2024-03-25T09:35:05;9.40;99.90
5200;DHT22;2619;47.868;11.892;2024-03-25T09:37:31;9.50;99.90
5200;DHT22;2619;47.868;11.892;2024-03-25T09:39:57;9.60;99.90
5200;DHT22;2619;47.868;11.892;2024-03-25T09:42:28;9.50;99.90
5200;DHT22;2619;47.868;11.892;2024-03-25T09:44:58;9.60;99.90
5200;DHT22;2619;47.868;11.892;2024-03-25T09:47:23;9.60;98.50
5200;DHT22;2619;47.868;11.892;2024-03-25T09:49:50;9.60;97.20
5200;DHT22;2619;47.868;11.892;2024-03-25T09:52:17;9.60;97.80
5200;DHT22;2619;47.868;11.892;2024-03-25T09:54:44;9.90;97.60
5200;DHT22;2619;47.868;11.892;2024-03-25T09:57:10;10.20;97.60
5200;DHT22;2619;47.868;11.892;2024-03-25T09:59:36;10.50;98.20
5200;DHT22;2619;47.868;11.892;2024-03-25T10:02:02;10.50;95.80
5200;DHT22;2619;47.868;11.892;2024-03-25T10:04:29;10.70;97.80
5200;DHT22;2619;47.868;11.892;2024-03-25T10:06:55;10.80;97.70
5200;DHT22;2619;47.868;11.892;2024-03-25T10:09:21;10.70;97.60
5200;DHT22;2619;47.868;11.892;2024-03-25T10:11:48;10.40;97.40
5200;DHT22;2619;47.868;11.892;2024-03-25T10:14:15;10.40;99.50
5200;DHT22;2619;47.868;11.892;2024-03-25T10:16:41;10.40;98.20
5200;DHT22;2619;47.868;11.892;2024-03-25T10:19:07;10.40;96.60
5200;DHT22;2619;47.868;11.892;2024-03-25T10:21:33;10.50;97.60
5200;DHT22;2619;47.868;11.892;2024-03-25T10:23:58;10.50;97.50
5200;DHT22;2619;47.868;11.892;2024-03-25T10:26:28;10.70;98.00
5200;DHT22;2619;47.868;11.892;2024-03-25T10:29:02;10.80;98.70
5200;DHT22;2619;47.868;11.892;2024-03-25T10:31:29;10.60;96.20
5200;DHT22;2619;47.868;11.892;2024-03-25T10:33:54;10.50;97.00
5200;DHT22;2619;47.868;11.892;2024-03-25T10:36:21;10.60;96.90
5200;DHT22;2619;47.868;11.892;2024-03-25T10:38:49;10.70;96.60
5200;DHT22;2619;47.868;11.892;2024-03-25T10:41:17;10.70;97.40
5200;DHT22;2619;47.868;11.892;2024-03-25T10:43:46;10.60;98.00
5200;DHT22;2619;47.868;11.892;2024-03-25T10:46:16;10.30;95.10
5200;DHT22;2619;47.868;11.892;2024-03-25T10:48:54;9.80;95.70
5200;DHT22;2619;47.868;11.892;2024-03-25T10:51:23;9.70;98.10
5200;DHT22;2619;47.868;11.892;2024-03-25T10:53:51;10.00;95.90
5200;DHT22;2619;47.868;11.892;2024-03-25T10:56:20;10.10;96.50
5200;DHT22;2619;47.868;11.892;2024-03-25T10:58:50;10.30;94.60
5200;DHT22;2619;47.868;11.892;2024-03-25T11:01:19;10.20;94.90
5200;DHT22;2619;47.868;11.892;2024-03-25T11:03:46;10.20;95.70
5200;DHT22;2619;47.868;11.892;2024-03-25T11:06:13;10.50;96.90
5200;DHT22;2619;47.868;11.892;2024-03-25T11:08:39;10.80;95.40
5200;DHT22;2619;47.868;11.892;2024-03-25T11:11:07;11.00;96.00
5200;DHT22;2619;47.868;11.892;2024-03-25T11:13:33;11.20;95.40
5200;DHT22;2619;47.868;11.892;2024-03-25T11:15:59;11.20;92.90
5200;DHT22;2619;47.868;11.892;2024-03-25T11:18:25;11.20;93.50
5200;DHT22;2619;47.868;11.892;2024-03-25T11:21:26;11.30;94.60
5200;DHT22;2619;47.868;11.892;2024-03-25T11:23:51;11.50;94.40
5200;DHT22;2619;47.868;11.892;2024-03-25T11:26:26;11.50;94.10
5200;DHT22;2619;47.868;11.892;2024-03-25T11:28:56;11.50;94.30
5200;DHT22;2619;47.868;11.892;2024-03-25T11:31:25;11.30;93.40
5200;DHT22;2619;47.868;11.892;2024-03-25T11:33:51;11.30;93.70
5200;DHT22;2619;47.868;11.892;2024-03-25T11:36:17;11.40;93.70
5200;DHT22;2619;47.868;11.892;2024-03-25T11:38:45;11.50;93.00
5200;DHT22;2619;47.868;11.892;2024-03-25T11:41:12;11.80;93.30
5200;DHT22;2619;47.868;11.892;2024-03-25T11:43:37;12.00;92.10
5200;DHT22;2619;47.868;11.892;2024-03-25T11:46:03;12.00;93.40
5200;DHT22;2619;47.868;11.892;2024-03-25T11:48:29;11.90;90.90
5200;DHT22;2619;47.868;11.892;2024-03-25T11:50:55;12.00;92.80
5200;DHT22;2619;47.868;11.892;2024-03-25T11:53:21;12.10;90.30
5200;DHT22;2619;47.868;11.892;2024-03-25T11:55:47;12.30;91.30
5200;DHT22;2619;47.868;11.892;2024-03-25T11:58:13;12.30;90.50
5200;DHT22;2619;47.868;11.892;2024-03-25T12:00:46;12.30;95.20
5200;DHT22;2619;47.868;11.892;2024-03-25T12:03:15;12.00;91.70
5200;DHT22;2619;47.868;11.892;2024-03-25T12:05:42;11.80;92.30
5200;DHT22;2619;47.868;11.892;2024-03-25T12:08:08;12.00;91.40
5200;DHT22;2619;47.868;11.892;2024-03-25T12:10:36;12.30;93.00
5200;DHT22;2619;47.868;11.892;2024-03-25T12:13:20;12.50;90.50
5200;DHT22;2619;47.868;11.892;2024-03-25T12:15:47;12.60;88.80
5200;DHT22;2619;47.868;11.892;2024-03-25T12:18:14;12.40;88.70
5200;DHT22;2619;47.868;11.892;2024-03-25T12:20:39;12.30;85.70
5200;DHT22;2619;47.868;11.892;2024-03-25T12:23:05;12.10;83.60
5200;DHT22;2619;47.868;11.892;2024-03-25T12:25:31;12.40;91.40
5200;DHT22;2619;47.868;11.892;2024-03-25T12:27:56;12.60;91.60
5200;DHT22;2619;47.868;11.892;2024-03-25T12:30:22;12.80;91.40
5200;DHT22;2619;47.868;11.892;2024-03-25T12:32:50;12.60;94.60
5200;DHT22;2619;47.868;11.892;2024-03-25T12:35:16;12.50;94.20
5200;DHT22;2619;47.868;11.892;2024-03-25T12:37:44;12.40;94.50
5200;DHT22;2619;47.868;11.892;2024-03-25T12:40:13;12.20;95.50
5200;DHT22;2619;47.868;11.892;2024-03-25T12:42:39;12.00;94.90
5200;DHT22;2619;47.868;11.892;2024-03-25T12:45:06;12.10;92.40
5200;DHT22;2619;47.868;11.892;2024-03-25T12:47:32;12.30;95.00
5200;DHT22;2619;47.868;11.892;2024-03-25T12:49:58;12.10;93.60
5200;DHT22;2619;47.868;11.892;2024-03-25T12:52:23;11.80;93.90
5200;DHT22;2619;47.868;11.892;2024-03-25T12:54:49;11.60;92.90
5200;DHT22;2619;47.868;11.892;2024-03-25T12:57:15;11.60;93.70
5200;DHT22;2619;47.868;11.892;2024-03-25T12:59:40;11.80;92.60
5200;DHT22;2619;47.868;11.892;2024-03-25T13:02:10;12.00;92.90
5200;DHT22;2619;47.868;11.892;2024-03-25T13:04:36;12.20;90.60
5200;DHT22;2619;47.868;11.892;2024-03-25T13:07:06;12.30;92.80
5200;DHT22;2619;47.868;11.892;2024-03-25T13:09:32;12.40;91.80
5200;DHT22;2619;47.868;11.892;2024-03-25T13:11:58;12.20;91.90
5200;DHT22;2619;47.868;11.892;2024-03-25T13:14:24;12.30;94.20
5200;DHT22;2619;47.868;11.892;2024-03-25T13:16:50;12.40;91.50
5200;DHT22;2619;47.868;11.892;2024-03-25T13:19:16;12.30;92.10
5200;DHT22;2619;47.868;11.892;2024-03-25T13:21:42;12.30;93.80
5200;DHT22;2619;47.868;11.892;2024-03-25T13:24:08;12.30;92.00
5200;DHT22;2619;47.868;11.892;2024-03-25T13:26:33;12.40;90.90
5200;DHT22;2619;47.868;11.892;2024-03-25T13:28:59;12.40;91.60
5200;DHT22;2619;47.868;11.892;2024-03-25T13:31:25;12.50;93.70
5200;DHT22;2619;47.868;11.892;2024-03-25T13:33:51;12.50;91.50
5200;DHT22;2619;47.868;11.892;2024-03-25T13:36:17;12.50;92.20
5200;DHT22;2619;47.868;11.892;2024-03-25T13:38:44;12.50;93.10
5200;DHT22;2619;47.868;11.892;2024-03-25T13:41:09;12.50;91.80
5200;DHT22;2619;47.868;11.892;2024-03-25T13:43:35;12.40;90.70
5200;DHT22;2619;47.868;11.892;2024-03-25T13:46:01;12.50;90.50
5200;DHT22;2619;47.868;11.892;2024-03-25T13:48:26;12.50;89.40
5200;DHT22;2619;47.868;11.892;2024-03-25T13:50:55;12.50;89.60
5200;DHT22;2619;47.868;11.892;2024-03-25T13:53:21;12.50;88.80
5200;DHT22;2619;47.868;11.892;2024-03-25T13:55:46;12.40;90.30
5200;DHT22;2619;47.868;11.892;2024-03-25T13:58:12;12.40;90.30
5200;DHT22;2619;47.868;11.892;2024-03-25T14:00:38;12.40;86.90
5200;DHT22;2619;47.868;11.892;2024-03-25T14:03:04;12.30;91.30
5200;DHT22;2619;47.868;11.892;2024-03-25T14:05:30;12.20;92.50
5200;DHT22;2619;47.868;11.892;2024-03-25T14:07:55;12.20;91.70
5200;DHT22;2619;47.868;11.892;2024-03-25T14:10:22;12.30;90.40
5200;DHT22;2619;47.868;11.892;2024-03-25T14:12:47;12.30;89.80
5200;DHT22;2619;47.868;11.892;2024-03-25T14:15:13;12.30;90.80
5200;DHT22;2619;47.868;11.892;2024-03-25T14:17:39;12.20;90.80
5200;DHT22;2619;47.868;11.892;2024-03-25T14:20:05;12.40;91.40
5200;DHT22;2619;47.868;11.892;2024-03-25T14:22:32;12.60;90.30
5200;DHT22;2619;47.868;11.892;2024-03-25T14:24:58;12.50;90.90
5200;DHT22;2619;47.868;11.892;2024-03-25T14:27:24;12.40;90.90
5200;DHT22;2619;47.868;11.892;2024-03-25T14:29:51;12.40;89.10
5200;DHT22;2619;47.868;11.892;2024-03-25T14:32:20;12.30;91.30
5200;DHT22;2619;47.868;11.892;2024-03-25T14:34:50;12.30;91.30
5200;DHT22;2619;47.868;11.892;2024-03-25T14:37:15;12.30;88.30
5200;DHT22;2619;47.868;11.892;2024-03-25T14:39:41;12.30;90.00
5200;DHT22;2619;47.868;11.892;2024-03-25T14:42:10;12.30;88.90
5200;DHT22;2619;47.868;11.892;2024-03-25T14:44:36;12.10;90.80
5200;DHT22;2619;47.868;11.892;2024-03-25T14:47:03;12.10;91.60
5200;DHT22;2619;47.868;11.892;2024-03-25T14:49:28;12.00;89.70
5200;DHT22;2619;47.868;11.892;2024-03-25T14:51:54;11.90;93.00
5200;DHT22;2619;47.868;11.892;2024-03-25T14:54:20;11.70;93.00
5200;DHT22;2619;47.868;11.892;2024-03-25T14:56:46;11.50;91.20
5200;DHT22;2619;47.868;11.892;2024-03-25T14:59:11;11.30;93.40
5200;DHT22;2619;47.868;11.892;2024-03-25T15:01:37;11.20;93.60
5200;DHT22;2619;47.868;11.892;2024-03-25T15:04:03;11.10;92.00
5200;DHT22;2619;47.868;11.892;2024-03-25T15:06:29;11.10;94.50
5200;DHT22;2619;47.868;11.892;2024-03-25T15:08:56;11.00;93.90
5200;DHT22;2619;47.868;11.892;2024-03-25T15:11:22;10.80;93.60
5200;DHT22;2619;47.868;11.892;2024-03-25T15:13:48;10.70;93.30
5200;DHT22;2619;47.868;11.892;2024-03-25T15:16:13;10.80;91.20
5200;DHT22;2619;47.868;11.892;2024-03-25T15:18:39;10.90;92.00
5200;DHT22;2619;47.868;11.892;2024-03-25T15:21:05;10.70;93.10
5200;DHT22;2619;47.868;11.892;2024-03-25T15:23:31;10.70;91.20
5200;DHT22;2619;47.868;11.892;2024-03-25T15:25:58;10.80;91.40
5200;DHT22;2619;47.868;11.892;2024-03-25T15:28:23;10.70;92.60
5200;DHT22;2619;47.868;11.892;2024-03-25T15:30:50;10.70;90.10
5200;DHT22;2619;47.868;11.892;2024-03-25T15:33:16;10.60;92.50
5200;DHT22;2619;47.868;11.892;2024-03-25T15:35:42;10.50;92.70
5200;DHT22;2619;47.868;11.892;2024-03-25T15:38:08;10.50;91.30
5200;DHT22;2619;47.868;11.892;2024-03-25T15:40:35;10.60;91.90
5200;DHT22;2619;47.868;11.892;2024-03-25T15:43:00;10.50;93.30
5200;DHT22;2619;47.868;11.892;2024-03-25T15:45:27;10.50;92.90
5200;DHT22;2619;47.868;11.892;2024-03-25T15:47:54;10.40;93.10
5200;DHT22;2619;47.868;11.892;2024-03-25T15:50:20;10.30;93.80
5200;DHT22;2619;47.868;11.892;2024-03-25T15:52:46;10.30;93.80